sensor_id;sensor_type;location;lat;lon;timestamp;P1;durP1;ratioP1;P2;durP2;ratioP2
73276;SDS011;61501;43.316;5.372;2024-01-30T00:00:16;13.60;;;12.20;;
73276;SDS011;61501;43.316;5.372;2024-01-30T00:02:42;14.43;;;13.00;;
73276;SDS011;61501;43.316;5.372;2024-01-30T00:05:08;16.15;;;14.13;;
73276;SDS011;61501;43.316;5.372;2024-01-30T00:07:34;14.20;;;12.48;;
73276;SDS011;61501;43.316;5.372;2024-01-30T00:09:59;15.07;;;13.48;;
73276;SDS011;61501;43.316;5.372;2024-01-30T00:12:25;15.20;;;12.30;;
73276;SDS011;61501;43.316;5.372;2024-01-30T00:14:51;14.40;;;12.60;;
73276;SDS011;61501;43.316;5.372;2024-01-30T00:17:17;13.80;;;12.38;;
73276;SDS011;61501;43.316;5.372;2024-01-30T00:19:44;12.38;;;11.07;;
73276;SDS011;61501;43.316;5.372;2024-01-30T00:22:12;14.07;;;12.55;;
73276;SDS011;61501;43.316;5.372;2024-01-30T00:24:38;12.60;;;11.30;;
73276;SDS011;61501;43.316;5.372;2024-01-30T00:27:03;14.18;;;11.88;;
73276;SDS011;61501;43.316;5.372;2024-01-30T00:29:29;12.95;;;11.60;;
73276;SDS011;61501;43.316;5.372;2024-01-30T00:31:58;12.95;;;10.88;;
73276;SDS011;61501;43.316;5.372;2024-01-30T00:34:24;11.93;;;10.35;;
73276;SDS011;61501;43.316;5.372;2024-01-30T00:36:52;14.50;;;10.98;;
73276;SDS011;61501;43.316;5.372;2024-01-30T00:39:18;12.77;;;11.40;;
73276;SDS011;61501;43.316;5.372;2024-01-30T00:41:44;11.90;;;9.27;;
73276;SDS011;61501;43.316;5.372;2024-01-30T00:44:10;10.27;;;9.18;;
73276;SDS011;61501;43.316;5.372;2024-01-30T00:46:36;11.52;;;9.18;;
73276;SDS011;61501;43.316;5.372;2024-01-30T00:49:01;8.88;;;7.97;;
73276;SDS011;61501;43.316;5.372;2024-01-30T00:51:27;9.63;;;8.63;;
73276;SDS011;61501;43.316;5.372;2024-01-30T00:53:54;8.27;;;7.47;;
73276;SDS011;61501;43.316;5.372;2024-01-30T00:56:20;9.02;;;8.13;;
73276;SDS011;61501;43.316;5.372;2024-01-30T00:58:46;8.55;;;7.32;;
73276;SDS011;61501;43.316;5.372;2024-01-30T01:01:12;8.77;;;7.97;;
73276;SDS011;61501;43.316;5.372;2024-01-30T01:03:38;8.20;;;7.40;;
73276;SDS011;61501;43.316;5.372;2024-01-30T01:06:05;8.68;;;7.32;;
73276;SDS011;61501;43.316;5.372;2024-01-30T01:08:31;9.23;;;6.78;;
73276;SDS011;61501;43.316;5.372;2024-01-30T01:10:57;8.98;;;7.47;;
73276;SDS011;61501;43.316;5.372;2024-01-30T01:13:22;15.35;;;9.10;;
73276;SDS011;61501;43.316;5.372;2024-01-30T01:15:48;9.70;;;6.88;;
73276;SDS011;61501;43.316;5.372;2024-01-30T01:18:13;8.50;;;6.85;;
73276;SDS011;61501;43.316;5.372;2024-01-30T01:20:39;7.70;;;6.20;;
73276;SDS011;61501;43.316;5.372;2024-01-30T01:23:05;7.38;;;5.47;;
73276;SDS011;61501;43.316;5.372;2024-01-30T01:25:30;6.65;;;5.95;;
73276;SDS011;61501;43.316;5.372;2024-01-30T01:27:56;11.27;;;8.40;;
73276;SDS011;61501;43.316;5.372;2024-01-30T01:30:22;10.85;;;7.13;;
73276;SDS011;61501;43.316;5.372;2024-01-30T01:32:48;6.53;;;5.72;;
73276;SDS011;61501;43.316;5.372;2024-01-30T01:35:20;9.75;;;6.70;;
73276;SDS011;61501;43.316;5.372;2024-01-30T01:37:47;8.73;;;6.03;;
73276;SDS011;61501;43.316;5.372;2024-01-30T01:40:19;6.85;;;5.32;;
73276;SDS011;61501;43.316;5.372;2024-01-30T01:42:51;6.53;;;5.43;;
73276;SDS011;61501;43.316;5.372;2024-01-30T01:45:18;7.35;;;5.50;;
73276;SDS011;61501;43.316;5.372;2024-01-30T01:47:45;6.38;;;4.60;;
73276;SDS011;61501;43.316;5.372;2024-01-30T01:50:13;4.88;;;4.47;;
73276;SDS011;61501;43.316;5.372;2024-01-30T01:52:43;5.22;;;4.70;;
73276;SDS011;61501;43.316;5.372;2024-01-30T01:55:12;4.93;;;4.38;;
73276;SDS011;61501;43.316;5.372;2024-01-30T01:57:39;5.45;;;4.47;;
73276;SDS011;61501;43.316;5.372;2024-01-30T02:00:06;5.38;;;4.45;;
73276;SDS011;61501;43.316;5.372;2024-01-30T02:02:35;7.60;;;4.90;;
73276;SDS011;61501;43.316;5.372;2024-01-30T02:05:01;6.25;;;4.57;;
73276;SDS011;61501;43.316;5.372;2024-01-30T02:07:28;6.25;;;4.70;;
73276;SDS011;61501;43.316;5.372;2024-01-30T02:09:53;6.10;;;4.95;;
73276;SDS011;61501;43.316;5.372;2024-01-30T02:12:20;5.47;;;4.63;;
73276;SDS011;61501;43.316;5.372;2024-01-30T02:14:46;5.30;;;4.60;;
73276;SDS011;61501;43.316;5.372;2024-01-30T02:17:12;5.53;;;4.55;;
73276;SDS011;61501;43.316;5.372;2024-01-30T02:19:38;5.05;;;4.38;;
73276;SDS011;61501;43.316;5.372;2024-01-30T02:22:04;5.20;;;4.47;;
73276;SDS011;61501;43.316;5.372;2024-01-30T02:24:30;5.68;;;4.57;;
73276;SDS011;61501;43.316;5.372;2024-01-30T02:26:56;4.88;;;4.32;;
73276;SDS011;61501;43.316;5.372;2024-01-30T02:29:22;6.13;;;4.10;;
73276;SDS011;61501;43.316;5.372;2024-01-30T02:31:48;5.40;;;4.88;;
73276;SDS011;61501;43.316;5.372;2024-01-30T02:34:13;5.00;;;4.40;;
73276;SDS011;61501;43.316;5.372;2024-01-30T02:36:42;5.57;;;4.78;;
73276;SDS011;61501;43.316;5.372;2024-01-30T02:39:08;4.95;;;4.10;;
73276;SDS011;61501;43.316;5.372;2024-01-30T02:41:34;6.05;;;3.97;;
73276;SDS011;61501;43.316;5.372;2024-01-30T02:44:01;5.32;;;4.50;;
73276;SDS011;61501;43.316;5.372;2024-01-30T02:46:27;4.78;;;4.25;;
73276;SDS011;61501;43.316;5.372;2024-01-30T02:48:53;5.25;;;4.45;;
73276;SDS011;61501;43.316;5.372;2024-01-30T02:51:19;5.10;;;4.40;;
73276;SDS011;61501;43.316;5.372;2024-01-30T02:53:44;5.50;;;4.25;;
73276;SDS011;61501;43.316;5.372;2024-01-30T02:56:10;4.45;;;3.95;;
73276;SDS011;61501;43.316;5.372;2024-01-30T02:58:37;5.28;;;4.20;;
73276;SDS011;61501;43.316;5.372;2024-01-30T03:01:02;4.13;;;3.72;;
73276;SDS011;61501;43.316;5.372;2024-01-30T03:03:28;3.85;;;3.45;;
73276;SDS011;61501;43.316;5.372;2024-01-30T03:05:54;4.95;;;3.83;;
73276;SDS011;61501;43.316;5.372;2024-01-30T03:08:19;4.38;;;3.67;;
73276;SDS011;61501;43.316;5.372;2024-01-30T03:10:46;3.65;;;3.28;;
73276;SDS011;61501;43.316;5.372;2024-01-30T03:13:11;4.13;;;3.60;;
73276;SDS011;61501;43.316;5.372;2024-01-30T03:15:37;4.28;;;3.80;;
73276;SDS011;61501;43.316;5.372;2024-01-30T03:18:03;5.50;;;3.78;;
73276;SDS011;61501;43.316;5.372;2024-01-30T03:20:29;4.07;;;3.40;;
73276;SDS011;61501;43.316;5.372;2024-01-30T03:22:55;4.70;;;3.67;;
73276;SDS011;61501;43.316;5.372;2024-01-30T03:25:21;5.93;;;3.55;;
73276;SDS011;61501;43.316;5.372;2024-01-30T03:27:46;5.20;;;3.40;;
73276;SDS011;61501;43.316;5.372;2024-01-30T03:30:12;4.18;;;3.53;;
73276;SDS011;61501;43.316;5.372;2024-01-30T03:32:38;4.10;;;3.28;;
73276;SDS011;61501;43.316;5.372;2024-01-30T03:35:03;4.10;;;3.03;;
73276;SDS011;61501;43.316;5.372;2024-01-30T03:37:29;3.67;;;3.10;;
73276;SDS011;61501;43.316;5.372;2024-01-30T03:39:55;3.30;;;2.97;;
73276;SDS011;61501;43.316;5.372;2024-01-30T03:42:23;3.50;;;2.80;;
73276;SDS011;61501;43.316;5.372;2024-01-30T03:44:49;3.90;;;3.42;;
73276;SDS011;61501;43.316;5.372;2024-01-30T03:47:18;6.25;;;4.00;;
73276;SDS011;61501;43.316;5.372;2024-01-30T03:49:44;5.45;;;3.65;;
73276;SDS011;61501;43.316;5.372;2024-01-30T03:52:10;4.00;;;3.22;;
73276;SDS011;61501;43.316;5.372;2024-01-30T03:54:36;3.45;;;3.15;;
73276;SDS011;61501;43.316;5.372;2024-01-30T03:57:01;5.28;;;3.50;;
73276;SDS011;61501;43.316;5.372;2024-01-30T03:59:27;4.55;;;3.47;;
73276;SDS011;61501;43.316;5.372;2024-01-30T04:01:52;5.13;;;4.05;;
73276;SDS011;61501;43.316;5.372;2024-01-30T04:04:19;4.50;;;4.10;;
73276;SDS011;61501;43.316;5.372;2024-01-30T04:06:45;4.63;;;3.70;;
73276;SDS011;61501;43.316;5.372;2024-01-30T04:09:14;5.28;;;4.20;;
73276;SDS011;61501;43.316;5.372;2024-01-30T04:11:40;6.75;;;3.95;;
73276;SDS011;61501;43.316;5.372;2024-01-30T04:14:07;4.45;;;3.65;;
73276;SDS011;61501;43.316;5.372;2024-01-30T04:16:33;6.38;;;3.70;;
73276;SDS011;61501;43.316;5.372;2024-01-30T04:18:59;5.38;;;3.85;;
73276;SDS011;61501;43.316;5.372;2024-01-30T04:21:25;4.15;;;3.25;;
73276;SDS011;61501;43.316;5.372;2024-01-30T04:23:51;4.50;;;2.85;;
73276;SDS011;61501;43.316;5.372;2024-01-30T04:26:17;4.10;;;3.45;;
73276;SDS011;61501;43.316;5.372;2024-01-30T04:28:45;4.43;;;3.55;;
73276;SDS011;61501;43.316;5.372;2024-01-30T04:31:11;3.53;;;3.03;;
73276;SDS011;61501;43.316;5.372;2024-01-30T04:33:37;4.68;;;3.47;;
73276;SDS011;61501;43.316;5.372;2024-01-30T04:36:03;3.60;;;3.08;;
73276;SDS011;61501;43.316;5.372;2024-01-30T04:38:29;3.95;;;2.97;;
73276;SDS011;61501;43.316;5.372;2024-01-30T04:40:56;3.72;;;2.92;;
73276;SDS011;61501;43.316;5.372;2024-01-30T04:43:22;4.15;;;3.30;;
73276;SDS011;61501;43.316;5.372;2024-01-30T04:45:47;4.05;;;3.15;;
73276;SDS011;61501;43.316;5.372;2024-01-30T04:48:13;3.70;;;3.25;;
73276;SDS011;61501;43.316;5.372;2024-01-30T04:50:42;4.22;;;3.10;;
73276;SDS011;61501;43.316;5.372;2024-01-30T04:53:08;3.88;;;3.17;;
73276;SDS011;61501;43.316;5.372;2024-01-30T04:55:34;4.38;;;3.15;;
73276;SDS011;61501;43.316;5.372;2024-01-30T04:58:01;4.53;;;3.67;;
73276;SDS011;61501;43.316;5.372;2024-01-30T05:00:27;4.22;;;3.72;;
73276;SDS011;61501;43.316;5.372;2024-01-30T05:02:54;4.78;;;3.45;;
73276;SDS011;61501;43.316;5.372;2024-01-30T05:05:21;4.15;;;3.25;;
73276;SDS011;61501;43.316;5.372;2024-01-30T05:07:46;3.67;;;3.10;;
73276;SDS011;61501;43.316;5.372;2024-01-30T05:10:12;3.60;;;3.13;;
73276;SDS011;61501;43.316;5.372;2024-01-30T05:12:38;4.38;;;3.28;;
73276;SDS011;61501;43.316;5.372;2024-01-30T05:15:07;5.15;;;3.58;;
73276;SDS011;61501;43.316;5.372;2024-01-30T05:17:34;4.70;;;4.30;;
73276;SDS011;61501;43.316;5.372;2024-01-30T05:19:59;7.47;;;5.32;;
73276;SDS011;61501;43.316;5.372;2024-01-30T05:22:25;5.72;;;3.85;;
73276;SDS011;61501;43.316;5.372;2024-01-30T05:24:50;4.47;;;3.35;;
73276;SDS011;61501;43.316;5.372;2024-01-30T05:27:16;6.30;;;3.45;;
73276;SDS011;61501;43.316;5.372;2024-01-30T05:29:42;4.35;;;3.33;;
73276;SDS011;61501;43.316;5.372;2024-01-30T05:32:07;4.32;;;3.70;;
73276;SDS011;61501;43.316;5.372;2024-01-30T05:34:33;4.03;;;3.33;;
73276;SDS011;61501;43.316;5.372;2024-01-30T05:37:00;4.82;;;3.92;;
73276;SDS011;61501;43.316;5.372;2024-01-30T05:39:26;4.72;;;4.10;;
73276;SDS011;61501;43.316;5.372;2024-01-30T05:41:52;4.43;;;3.63;;
73276;SDS011;61501;43.316;5.372;2024-01-30T05:44:17;5.85;;;4.15;;
73276;SDS011;61501;43.316;5.372;2024-01-30T05:46:43;5.25;;;3.95;;
73276;SDS011;61501;43.316;5.372;2024-01-30T05:49:09;4.38;;;3.80;;
73276;SDS011;61501;43.316;5.372;2024-01-30T05:51:37;5.07;;;3.88;;
73276;SDS011;61501;43.316;5.372;2024-01-30T05:54:03;4.97;;;3.80;;
73276;SDS011;61501;43.316;5.372;2024-01-30T05:56:29;4.75;;;4.18;;
73276;SDS011;61501;43.316;5.372;2024-01-30T05:58:55;3.88;;;3.47;;
73276;SDS011;61501;43.316;5.372;2024-01-30T06:01:20;7.53;;;4.38;;
73276;SDS011;61501;43.316;5.372;2024-01-30T06:03:46;5.30;;;4.30;;
73276;SDS011;61501;43.316;5.372;2024-01-30T06:06:12;7.57;;;4.35;;
73276;SDS011;61501;43.316;5.372;2024-01-30T06:08:37;6.55;;;4.38;;
73276;SDS011;61501;43.316;5.372;2024-01-30T06:11:03;7.72;;;3.80;;
73276;SDS011;61501;43.316;5.372;2024-01-30T06:13:29;4.93;;;4.20;;
73276;SDS011;61501;43.316;5.372;2024-01-30T06:15:56;9.55;;;4.15;;
73276;SDS011;61501;43.316;5.372;2024-01-30T06:18:25;6.50;;;4.13;;
73276;SDS011;61501;43.316;5.372;2024-01-30T06:20:52;7.78;;;3.85;;
73276;SDS011;61501;43.316;5.372;2024-01-30T06:23:17;5.05;;;4.07;;
73276;SDS011;61501;43.316;5.372;2024-01-30T06:25:43;4.28;;;3.80;;
73276;SDS011;61501;43.316;5.372;2024-01-30T06:28:09;5.10;;;3.83;;
73276;SDS011;61501;43.316;5.372;2024-01-30T06:30:34;7.63;;;4.57;;
73276;SDS011;61501;43.316;5.372;2024-01-30T06:33:00;5.97;;;4.22;;
73276;SDS011;61501;43.316;5.372;2024-01-30T06:35:27;7.00;;;4.13;;
73276;SDS011;61501;43.316;5.372;2024-01-30T06:37:54;4.72;;;3.78;;
73276;SDS011;61501;43.316;5.372;2024-01-30T06:40:19;6.07;;;3.92;;
73276;SDS011;61501;43.316;5.372;2024-01-30T06:42:45;5.68;;;4.10;;
73276;SDS011;61501;43.316;5.372;2024-01-30T06:45:10;5.32;;;4.82;;
73276;SDS011;61501;43.316;5.372;2024-01-30T06:47:36;5.60;;;4.18;;
73276;SDS011;61501;43.316;5.372;2024-01-30T06:50:02;7.28;;;4.32;;
73276;SDS011;61501;43.316;5.372;2024-01-30T06:52:28;4.85;;;3.70;;
73276;SDS011;61501;43.316;5.372;2024-01-30T06:54:54;5.55;;;3.85;;
73276;SDS011;61501;43.316;5.372;2024-01-30T06:57:19;6.28;;;4.70;;
73276;SDS011;61501;43.316;5.372;2024-01-30T06:59:45;6.95;;;5.93;;
73276;SDS011;61501;43.316;5.372;2024-01-30T07:02:12;7.60;;;4.47;;
73276;SDS011;61501;43.316;5.372;2024-01-30T07:04:37;5.75;;;4.90;;
73276;SDS011;61501;43.316;5.372;2024-01-30T07:07:04;6.70;;;4.95;;
73276;SDS011;61501;43.316;5.372;2024-01-30T07:09:30;8.18;;;4.55;;
73276;SDS011;61501;43.316;5.372;2024-01-30T07:11:56;5.18;;;4.60;;
73276;SDS011;61501;43.316;5.372;2024-01-30T07:14:23;6.90;;;5.18;;
73276;SDS011;61501;43.316;5.372;2024-01-30T07:16:49;5.63;;;4.97;;
73276;SDS011;61501;43.316;5.372;2024-01-30T07:19:15;7.78;;;5.05;;
73276;SDS011;61501;43.316;5.372;2024-01-30T07:21:41;7.22;;;5.15;;
73276;SDS011;61501;43.316;5.372;2024-01-30T07:24:07;7.88;;;5.38;;
73276;SDS011;61501;43.316;5.372;2024-01-30T07:26:33;6.22;;;5.32;;
73276;SDS011;61501;43.316;5.372;2024-01-30T07:28:58;6.05;;;5.07;;
73276;SDS011;61501;43.316;5.372;2024-01-30T07:31:24;9.40;;;5.72;;
73276;SDS011;61501;43.316;5.372;2024-01-30T07:33:50;9.25;;;7.20;;
73276;SDS011;61501;43.316;5.372;2024-01-30T07:36:15;9.98;;;7.90;;
73276;SDS011;61501;43.316;5.372;2024-01-30T07:38:41;10.63;;;6.90;;
73276;SDS011;61501;43.316;5.372;2024-01-30T07:41:07;9.43;;;6.03;;
73276;SDS011;61501;43.316;5.372;2024-01-30T07:43:33;8.13;;;5.55;;
73276;SDS011;61501;43.316;5.372;2024-01-30T07:45:59;7.05;;;5.55;;
73276;SDS011;61501;43.316;5.372;2024-01-30T07:48:26;9.63;;;5.65;;
73276;SDS011;61501;43.316;5.372;2024-01-30T07:50:52;8.38;;;5.88;;
73276;SDS011;61501;43.316;5.372;2024-01-30T07:53:18;9.30;;;5.78;;
73276;SDS011;61501;43.316;5.372;2024-01-30T07:55:47;7.72;;;5.97;;
73276;SDS011;61501;43.316;5.372;2024-01-30T07:58:13;10.05;;;6.05;;
73276;SDS011;61501;43.316;5.372;2024-01-30T08:00:39;10.20;;;6.30;;
73276;SDS011;61501;43.316;5.372;2024-01-30T08:03:05;11.55;;;7.25;;
73276;SDS011;61501;43.316;5.372;2024-01-30T08:05:30;10.80;;;5.97;;
73276;SDS011;61501;43.316;5.372;2024-01-30T08:07:56;7.38;;;6.55;;
73276;SDS011;61501;43.316;5.372;2024-01-30T08:10:22;10.13;;;6.78;;
73276;SDS011;61501;43.316;5.372;2024-01-30T08:12:48;12.20;;;7.20;;
73276;SDS011;61501;43.316;5.372;2024-01-30T08:15:13;11.35;;;7.32;;
73276;SDS011;61501;43.316;5.372;2024-01-30T08:17:39;14.75;;;7.05;;
73276;SDS011;61501;43.316;5.372;2024-01-30T08:20:05;12.50;;;5.90;;
73276;SDS011;61501;43.316;5.372;2024-01-30T08:22:33;10.40;;;6.05;;
73276;SDS011;61501;43.316;5.372;2024-01-30T08:24:58;7.68;;;6.68;;
73276;SDS011;61501;43.316;5.372;2024-01-30T08:27:24;7.28;;;6.07;;
73276;SDS011;61501;43.316;5.372;2024-01-30T08:29:50;8.02;;;6.00;;
73276;SDS011;61501;43.316;5.372;2024-01-30T08:32:16;9.18;;;5.38;;
73276;SDS011;61501;43.316;5.372;2024-01-30T08:34:41;8.07;;;5.57;;
73276;SDS011;61501;43.316;5.372;2024-01-30T08:37:07;8.13;;;5.82;;
73276;SDS011;61501;43.316;5.372;2024-01-30T08:39:33;7.85;;;5.47;;
73276;SDS011;61501;43.316;5.372;2024-01-30T08:41:58;7.18;;;6.15;;
73276;SDS011;61501;43.316;5.372;2024-01-30T08:44:24;7.97;;;5.57;;
73276;SDS011;61501;43.316;5.372;2024-01-30T08:46:50;8.32;;;5.32;;
73276;SDS011;61501;43.316;5.372;2024-01-30T08:49:16;12.57;;;6.50;;
73276;SDS011;61501;43.316;5.372;2024-01-30T08:51:42;11.20;;;6.00;;
73276;SDS011;61501;43.316;5.372;2024-01-30T08:54:07;8.75;;;5.97;;
73276;SDS011;61501;43.316;5.372;2024-01-30T08:56:33;7.65;;;6.20;;
73276;SDS011;61501;43.316;5.372;2024-01-30T08:58:59;8.05;;;6.30;;
73276;SDS011;61501;43.316;5.372;2024-01-30T09:01:25;8.20;;;5.93;;
73276;SDS011;61501;43.316;5.372;2024-01-30T09:03:51;8.63;;;7.13;;
73276;SDS011;61501;43.316;5.372;2024-01-30T09:06:17;12.07;;;6.93;;
73276;SDS011;61501;43.316;5.372;2024-01-30T09:08:42;7.68;;;6.80;;
73276;SDS011;61501;43.316;5.372;2024-01-30T09:11:09;8.05;;;6.47;;
73276;SDS011;61501;43.316;5.372;2024-01-30T09:13:38;10.05;;;7.18;;
73276;SDS011;61501;43.316;5.372;2024-01-30T09:16:04;9.93;;;6.68;;
73276;SDS011;61501;43.316;5.372;2024-01-30T09:18:30;8.93;;;6.43;;
73276;SDS011;61501;43.316;5.372;2024-01-30T09:20:56;9.63;;;6.47;;
73276;SDS011;61501;43.316;5.372;2024-01-30T09:23:22;8.07;;;7.28;;
73276;SDS011;61501;43.316;5.372;2024-01-30T09:25:48;9.55;;;7.72;;
73276;SDS011;61501;43.316;5.372;2024-01-30T09:28:13;10.57;;;7.80;;
73276;SDS011;61501;43.316;5.372;2024-01-30T09:30:39;9.98;;;8.95;;
73276;SDS011;61501;43.316;5.372;2024-01-30T09:33:05;11.00;;;9.00;;
73276;SDS011;61501;43.316;5.372;2024-01-30T09:35:31;10.57;;;9.35;;
73276;SDS011;61501;43.316;5.372;2024-01-30T09:37:57;11.38;;;9.77;;
73276;SDS011;61501;43.316;5.372;2024-01-30T09:40:23;16.45;;;10.05;;
73276;SDS011;61501;43.316;5.372;2024-01-30T09:42:50;17.67;;;10.77;;
73276;SDS011;61501;43.316;5.372;2024-01-30T09:45:17;14.15;;;9.95;;
73276;SDS011;61501;43.316;5.372;2024-01-30T09:47:44;11.82;;;9.77;;
73276;SDS011;61501;43.316;5.372;2024-01-30T09:50:14;15.45;;;10.95;;
73276;SDS011;61501;43.316;5.372;2024-01-30T09:52:40;13.15;;;9.65;;
73276;SDS011;61501;43.316;5.372;2024-01-30T09:55:11;12.90;;;10.25;;
73276;SDS011;61501;43.316;5.372;2024-01-30T09:57:41;10.70;;;8.35;;
73276;SDS011;61501;43.316;5.372;2024-01-30T10:00:07;9.93;;;8.93;;
73276;SDS011;61501;43.316;5.372;2024-01-30T10:02:34;12.10;;;8.32;;
73276;SDS011;61501;43.316;5.372;2024-01-30T10:05:00;12.98;;;8.55;;
73276;SDS011;61501;43.316;5.372;2024-01-30T10:07:26;12.55;;;8.32;;
73276;SDS011;61501;43.316;5.372;2024-01-30T10:09:52;9.57;;;8.15;;
73276;SDS011;61501;43.316;5.372;2024-01-30T10:12:20;9.68;;;8.77;;
73276;SDS011;61501;43.316;5.372;2024-01-30T10:14:45;9.30;;;8.40;;
73276;SDS011;61501;43.316;5.372;2024-01-30T10:17:11;9.20;;;8.20;;
73276;SDS011;61501;43.316;5.372;2024-01-30T10:19:38;8.82;;;8.00;;
73276;SDS011;61501;43.316;5.372;2024-01-30T10:22:05;9.25;;;8.35;;
73276;SDS011;61501;43.316;5.372;2024-01-30T10:24:31;9.38;;;8.38;;
73276;SDS011;61501;43.316;5.372;2024-01-30T10:26:58;9.63;;;8.60;;
73276;SDS011;61501;43.316;5.372;2024-01-30T10:29:24;10.68;;;8.75;;
73276;SDS011;61501;43.316;5.372;2024-01-30T10:32:02;10.88;;;9.70;;
73276;SDS011;61501;43.316;5.372;2024-01-30T10:34:29;15.35;;;10.10;;
73276;SDS011;61501;43.316;5.372;2024-01-30T10:37:16;12.55;;;9.77;;
73276;SDS011;61501;43.316;5.372;2024-01-30T10:39:42;10.23;;;8.82;;
73276;SDS011;61501;43.316;5.372;2024-01-30T10:42:13;11.00;;;7.65;;
73276;SDS011;61501;43.316;5.372;2024-01-30T10:47:21;12.55;;;8.13;;
73276;SDS011;61501;43.316;5.372;2024-01-30T10:49:54;10.15;;;7.68;;
73276;SDS011;61501;43.316;5.372;2024-01-30T10:52:21;9.80;;;8.32;;
73276;SDS011;61501;43.316;5.372;2024-01-30T10:54:49;10.02;;;7.65;;
73276;SDS011;61501;43.316;5.372;2024-01-30T10:57:16;8.75;;;7.95;;
73276;SDS011;61501;43.316;5.372;2024-01-30T10:59:42;9.35;;;8.13;;
73276;SDS011;61501;43.316;5.372;2024-01-30T11:02:09;9.77;;;8.63;;
73276;SDS011;61501;43.316;5.372;2024-01-30T11:04:36;9.18;;;8.25;;
73276;SDS011;61501;43.316;5.372;2024-01-30T11:07:02;9.43;;;8.55;;
73276;SDS011;61501;43.316;5.372;2024-01-30T11:09:39;12.23;;;10.00;;
73276;SDS011;61501;43.316;5.372;2024-01-30T11:12:12;9.80;;;8.07;;
73276;SDS011;61501;43.316;5.372;2024-01-30T11:14:37;10.32;;;7.88;;
73276;SDS011;61501;43.316;5.372;2024-01-30T11:17:05;10.90;;;8.57;;
73276;SDS011;61501;43.316;5.372;2024-01-30T11:19:31;10.18;;;7.82;;
73276;SDS011;61501;43.316;5.372;2024-01-30T11:21:57;8.38;;;6.95;;
73276;SDS011;61501;43.316;5.372;2024-01-30T11:24:23;7.28;;;6.07;;
73276;SDS011;61501;43.316;5.372;2024-01-30T11:26:49;9.05;;;7.60;;
73276;SDS011;61501;43.316;5.372;2024-01-30T11:29:20;9.10;;;7.65;;
73276;SDS011;61501;43.316;5.372;2024-01-30T11:31:57;10.50;;;7.03;;
73276;SDS011;61501;43.316;5.372;2024-01-30T11:34:23;8.65;;;7.45;;
73276;SDS011;61501;43.316;5.372;2024-01-30T11:36:53;9.05;;;6.97;;
73276;SDS011;61501;43.316;5.372;2024-01-30T11:39:25;6.78;;;6.07;;
73276;SDS011;61501;43.316;5.372;2024-01-30T11:41:52;8.27;;;6.95;;
73276;SDS011;61501;43.316;5.372;2024-01-30T11:44:21;10.10;;;6.90;;
73276;SDS011;61501;43.316;5.372;2024-01-30T11:46:48;7.85;;;6.15;;
73276;SDS011;61501;43.316;5.372;2024-01-30T11:49:14;11.35;;;7.32;;
73276;SDS011;61501;43.316;5.372;2024-01-30T11:51:41;8.63;;;6.60;;
73276;SDS011;61501;43.316;5.372;2024-01-30T11:54:07;8.00;;;7.20;;
73276;SDS011;61501;43.316;5.372;2024-01-30T11:56:33;8.95;;;6.50;;
73276;SDS011;61501;43.316;5.372;2024-01-30T11:58:58;8.50;;;6.82;;
73276;SDS011;61501;43.316;5.372;2024-01-30T12:01:25;10.85;;;6.88;;
73276;SDS011;61501;43.316;5.372;2024-01-30T12:03:52;8.98;;;6.28;;
73276;SDS011;61501;43.316;5.372;2024-01-30T12:06:18;9.07;;;6.25;;
73276;SDS011;61501;43.316;5.372;2024-01-30T12:08:55;10.23;;;6.80;;
73276;SDS011;61501;43.316;5.372;2024-01-30T12:11:24;7.32;;;6.65;;
73276;SDS011;61501;43.316;5.372;2024-01-30T12:13:51;8.32;;;6.38;;
73276;SDS011;61501;43.316;5.372;2024-01-30T12:16:17;10.50;;;6.28;;
73276;SDS011;61501;43.316;5.372;2024-01-30T12:18:43;7.45;;;6.65;;
73276;SDS011;61501;43.316;5.372;2024-01-30T12:21:09;7.60;;;5.82;;
73276;SDS011;61501;43.316;5.372;2024-01-30T12:23:35;6.40;;;5.68;;
73276;SDS011;61501;43.316;5.372;2024-01-30T12:26:00;10.50;;;5.80;;
73276;SDS011;61501;43.316;5.372;2024-01-30T12:28:29;8.02;;;5.45;;
73276;SDS011;61501;43.316;5.372;2024-01-30T12:31:01;7.78;;;5.40;;
73276;SDS011;61501;43.316;5.372;2024-01-30T12:33:28;7.65;;;5.00;;
73276;SDS011;61501;43.316;5.372;2024-01-30T12:35:55;7.68;;;5.32;;
73276;SDS011;61501;43.316;5.372;2024-01-30T12:38:21;6.57;;;4.53;;
73276;SDS011;61501;43.316;5.372;2024-01-30T12:40:49;6.50;;;4.50;;
73276;SDS011;61501;43.316;5.372;2024-01-30T12:43:15;6.32;;;4.00;;
73276;SDS011;61501;43.316;5.372;2024-01-30T12:45:41;5.30;;;4.38;;
73276;SDS011;61501;43.316;5.372;2024-01-30T12:48:08;4.88;;;4.03;;
73276;SDS011;61501;43.316;5.372;2024-01-30T12:50:34;5.82;;;4.30;;
73276;SDS011;61501;43.316;5.372;2024-01-30T12:52:59;4.70;;;4.03;;
73276;SDS011;61501;43.316;5.372;2024-01-30T12:55:25;4.45;;;4.03;;
73276;SDS011;61501;43.316;5.372;2024-01-30T12:57:53;7.78;;;4.60;;
73276;SDS011;61501;43.316;5.372;2024-01-30T13:00:19;4.50;;;4.05;;
73276;SDS011;61501;43.316;5.372;2024-01-30T13:02:45;6.13;;;4.13;;
73276;SDS011;61501;43.316;5.372;2024-01-30T13:05:12;4.95;;;3.90;;
73276;SDS011;61501;43.316;5.372;2024-01-30T13:07:38;4.05;;;3.65;;
73276;SDS011;61501;43.316;5.372;2024-01-30T13:10:03;6.50;;;3.95;;
73276;SDS011;61501;43.316;5.372;2024-01-30T13:12:29;8.77;;;4.68;;
73276;SDS011;61501;43.316;5.372;2024-01-30T13:14:57;5.20;;;4.55;;
73276;SDS011;61501;43.316;5.372;2024-01-30T13:17:26;7.15;;;5.38;;
73276;SDS011;61501;43.316;5.372;2024-01-30T13:19:55;4.93;;;4.10;;
73276;SDS011;61501;43.316;5.372;2024-01-30T13:22:21;6.82;;;5.03;;
73276;SDS011;61501;43.316;5.372;2024-01-30T13:24:47;6.40;;;4.55;;
73276;SDS011;61501;43.316;5.372;2024-01-30T13:27:13;5.07;;;4.38;;
73276;SDS011;61501;43.316;5.372;2024-01-30T13:29:39;6.25;;;4.15;;
73276;SDS011;61501;43.316;5.372;2024-01-30T13:32:05;5.38;;;4.32;;
73276;SDS011;61501;43.316;5.372;2024-01-30T13:34:31;4.50;;;3.60;;
73276;SDS011;61501;43.316;5.372;2024-01-30T13:36:57;6.43;;;3.78;;
73276;SDS011;61501;43.316;5.372;2024-01-30T13:39:22;5.40;;;4.30;;
73276;SDS011;61501;43.316;5.372;2024-01-30T13:41:48;6.60;;;4.10;;
73276;SDS011;61501;43.316;5.372;2024-01-30T13:44:15;6.63;;;4.40;;
73276;SDS011;61501;43.316;5.372;2024-01-30T13:46:42;5.00;;;4.40;;
73276;SDS011;61501;43.316;5.372;2024-01-30T13:49:08;6.32;;;4.60;;
73276;SDS011;61501;43.316;5.372;2024-01-30T13:51:34;5.03;;;4.22;;
73276;SDS011;61501;43.316;5.372;2024-01-30T13:53:59;4.75;;;4.25;;
73276;SDS011;61501;43.316;5.372;2024-01-30T13:56:25;6.95;;;4.40;;
73276;SDS011;61501;43.316;5.372;2024-01-30T13:58:51;7.90;;;4.32;;
73276;SDS011;61501;43.316;5.372;2024-01-30T14:01:17;7.32;;;4.55;;
73276;SDS011;61501;43.316;5.372;2024-01-30T14:03:43;5.10;;;4.60;;
73276;SDS011;61501;43.316;5.372;2024-01-30T14:06:09;8.32;;;5.10;;
73276;SDS011;61501;43.316;5.372;2024-01-30T14:08:34;7.65;;;3.92;;
73276;SDS011;61501;43.316;5.372;2024-01-30T14:11:00;4.85;;;4.10;;
73276;SDS011;61501;43.316;5.372;2024-01-30T14:13:26;7.07;;;4.22;;
73276;SDS011;61501;43.316;5.372;2024-01-30T14:15:51;6.40;;;4.25;;
73276;SDS011;61501;43.316;5.372;2024-01-30T14:18:18;4.40;;;4.00;;
73276;SDS011;61501;43.316;5.372;2024-01-30T14:20:43;5.85;;;4.25;;
73276;SDS011;61501;43.316;5.372;2024-01-30T14:23:09;6.25;;;4.43;;
73276;SDS011;61501;43.316;5.372;2024-01-30T14:25:35;6.07;;;4.43;;
73276;SDS011;61501;43.316;5.372;2024-01-30T14:28:00;6.45;;;4.47;;
73276;SDS011;61501;43.316;5.372;2024-01-30T14:30:26;5.65;;;4.18;;
73276;SDS011;61501;43.316;5.372;2024-01-30T14:32:52;5.95;;;4.03;;
73276;SDS011;61501;43.316;5.372;2024-01-30T14:35:17;7.30;;;4.63;;
73276;SDS011;61501;43.316;5.372;2024-01-30T14:37:44;4.70;;;4.03;;
73276;SDS011;61501;43.316;5.372;2024-01-30T14:40:10;5.68;;;4.20;;